createdAt,value
2019-04-20T00:03:18.055Z,101272.64
2019-04-20T00:08:27.404Z,101267.39
2019-04-20T00:13:41.809Z,101275.16
2019-04-20T00:18:42.956Z,101270.27
2019-04-20T00:23:46.165Z,101264.47
2019-04-20T00:29:07.007Z,101258.00
2019-04-20T00:34:04.614Z,101258.08
2019-04-20T00:39:05.768Z,101263.52
2019-04-20T00:44:13.403Z,101254.31
2019-04-20T00:49:32.288Z,101253.25
2019-04-20T00:54:22.228Z,101254.59
2019-04-20T00:59:43.027Z,101251.95
2019-04-20T01:04:56.452Z,101253.71
2019-04-20T01:09:58.331Z,101256.14
2019-04-20T01:15:06.254Z,101261.73
2019-04-20T01:20:11.885Z,101250.87
2019-04-20T01:25:22.060Z,101259.09
2019-04-20T01:30:30.281Z,101253.19
2019-04-20T01:35:45.059Z,101248.05
2019-04-20T01:40:38.066Z,101238.03
2019-04-20T01:45:44.123Z,101238.91
2019-04-20T01:50:59.824Z,101242.09
2019-04-20T01:56:13.280Z,101239.11
2019-04-20T02:01:09.730Z,101235.27
2019-04-20T02:06:21.301Z,101237.91
2019-04-20T02:11:29.613Z,101244.48
2019-04-20T02:16:37.323Z,101235.27
2019-04-20T02:21:51.791Z,101242.73
2019-04-20T02:26:41.230Z,101247.63
2019-04-20T02:37:53.859Z,101237.23
2019-04-20T02:42:50.745Z,101236.38
2019-04-20T02:47:56.713Z,101245.12
2019-04-20T02:58:01.907Z,101246.93
2019-04-20T03:02:55.297Z,101247.81
2019-04-20T03:08:13.785Z,101241.70
2019-04-20T03:13:14.143Z,101239.52
2019-04-20T03:18:21.304Z,101237.77
2019-04-20T03:28:48.847Z,101238.64
2019-04-20T03:34:13.454Z,101239.55
2019-04-20T03:38:57.351Z,101239.11
2019-04-20T03:43:45.675Z,101244.39
2019-04-20T03:49:04.481Z,101252.28
2019-04-20T03:54:16.949Z,101256.20
2019-04-20T03:59:34.884Z,101260.15
2019-04-20T04:05:02.793Z,101253.16
2019-04-20T04:10:02.480Z,101259.25
2019-04-20T04:14:51.549Z,101258.81
2019-04-20T04:20:03.425Z,101257.96
2019-04-20T04:25:18.356Z,101268.88
2019-04-20T04:30:21.829Z,101268.86
2019-04-20T04:35:26.481Z,101277.58
2019-04-20T04:40:51.408Z,101272.29
2019-04-20T04:45:31.473Z,101281.02
2019-04-20T04:50:44.892Z,101278.34
2019-04-20T04:55:48.669Z,101276.90
2019-04-20T05:00:46.786Z,101279.84
2019-04-20T05:06:16.694Z,101279.73
2019-04-20T05:11:02.657Z,101274.80
2019-04-20T05:16:19.239Z,101284.67
2019-04-20T05:21:30.045Z,101282.72
2019-04-20T05:26:45.973Z,101282.07
2019-04-20T05:31:33.993Z,101282.64
2019-04-20T05:36:57.519Z,101281.00
2019-04-20T05:41:56.626Z,101277.67
2019-04-20T05:47:06.984Z,101269.91
2019-04-20T05:52:26.294Z,101269.97
2019-04-20T05:57:25.014Z,101270.98
2019-04-20T06:02:27.279Z,101270.16
2019-04-20T06:07:40.374Z,101270.09
2019-04-20T06:12:40.268Z,101269.61
2019-04-20T06:18:02.725Z,101266.44
2019-04-20T06:23:39.842Z,101266.09
2019-04-20T06:28:30.174Z,101271.31
2019-04-20T06:34:19.879Z,101272.03
2019-04-20T06:39:18.644Z,101268.61
2019-04-20T06:44:24.832Z,101268.53
2019-04-20T06:49:31.776Z,101265.28
2019-04-20T06:54:38.067Z,101257.78
2019-04-20T06:59:47.386Z,101260.29
2019-04-20T07:09:59.827Z,101254.13
2019-04-20T07:14:57.729Z,101254.95
2019-04-20T07:20:09.880Z,101243.60
2019-04-20T07:25:21.463Z,101244.30
2019-04-20T07:30:29.661Z,101233.14
2019-04-20T07:35:38.829Z,101235.86
2019-04-20T07:40:39.464Z,101230.28
2019-04-20T07:45:41.598Z,101227.97
2019-04-20T07:50:44.873Z,101226.11
2019-04-20T07:55:57.993Z,101221.13
2019-04-20T08:01:14.241Z,101222.55
2019-04-20T08:06:19.850Z,101228.95
2019-04-20T08:11:38.008Z,101222.30
2019-04-20T08:21:55.150Z,101211.76
2019-04-20T08:26:45.384Z,101203.76
2019-04-20T08:32:17.923Z,101202.09
2019-04-20T08:37:20.813Z,101197.05
2019-04-20T08:42:39.951Z,101200.58
2019-04-20T08:47:48.709Z,101203.41
2019-04-20T08:57:31.464Z,101178.30
2019-04-20T09:02:36.917Z,101175.91
2019-04-20T09:07:53.840Z,101168.92
2019-04-20T09:13:04.906Z,101170.34
2019-04-20T09:18:03.737Z,101166.49
2019-04-20T09:23:27.090Z,101155.77
2019-04-20T09:28:34.566Z,101153.11
2019-04-20T09:34:07.420Z,101154.36
2019-04-20T09:39:14.098Z,101145.07
2019-04-20T09:44:11.184Z,101140.41
2019-04-20T09:49:28.608Z,101138.36
2019-04-20T09:54:41.604Z,101129.06
2019-04-20T09:59:49.678Z,101129.66
2019-04-20T10:04:35.593Z,101125.81
2019-04-20T10:09:44.832Z,101130.31
2019-04-20T10:14:47.351Z,101120.58
2019-04-20T10:19:51.844Z,101122.59
2019-04-20T10:24:57.181Z,101114.87
2019-04-20T10:30:04.685Z,101108.67
2019-04-20T10:35:09.016Z,101111.14
2019-04-20T10:40:31.582Z,101111.41
2019-04-20T10:45:21.326Z,101105.20
2019-04-20T10:50:27.148Z,101096.59
2019-04-20T10:55:31.893Z,101110.88
2019-04-20T11:00:46.830Z,101106.66
2019-04-20T11:05:52.853Z,101106.39
2019-04-20T11:11:07.091Z,101100.11
2019-04-20T11:16:06.467Z,101093.38
2019-04-20T11:21:11.409Z,101090.53
2019-04-20T11:26:16.248Z,101086.40
2019-04-20T11:31:22.009Z,101085.98
2019-04-20T11:36:27.430Z,101065.84
2019-04-20T11:41:34.118Z,101072.84
2019-04-20T11:46:38.758Z,101066.12
2019-04-20T11:51:43.572Z,101069.64
2019-04-20T11:56:49.055Z,101053.95
2019-04-20T12:02:02.713Z,101046.22
2019-04-20T12:07:05.081Z,101034.41
2019-04-20T12:12:23.468Z,101035.09
2019-04-20T12:17:15.845Z,101025.78
2019-04-20T12:22:21.403Z,101026.58
2019-04-20T12:27:26.972Z,101018.25
2019-04-20T12:32:35.239Z,101022.64
2019-04-20T12:37:38.938Z,101008.08
2019-04-20T12:42:44.248Z,101017.52
2019-04-20T12:47:51.483Z,101005.88
2019-04-20T12:52:56.747Z,101007.37
2019-04-20T12:58:02.726Z,101003.42
2019-04-20T13:03:07.553Z,100989.34
2019-04-20T13:08:15.905Z,100985.53
2019-04-20T13:13:22.732Z,100981.80
2019-04-20T13:18:31.389Z,100973.70
2019-04-20T13:23:37.051Z,100977.47
2019-04-20T13:28:42.966Z,100978.75
2019-04-20T13:33:47.885Z,100969.91
2019-04-20T13:38:52.531Z,100969.78
2019-04-20T13:43:59.318Z,100959.78
2019-04-20T13:49:04.859Z,100946.13
2019-04-20T13:54:16.200Z,100950.05
2019-04-20T13:59:28.158Z,100944.83
2019-04-20T14:04:34.809Z,100956.47
2019-04-20T14:09:41.452Z,100933.92
2019-04-20T14:14:46.913Z,100923.45
2019-04-20T14:19:52.902Z,100920.70
2019-04-20T14:24:57.573Z,100913.82
2019-04-20T14:30:03.383Z,100906.95
2019-04-20T14:35:09.519Z,100911.95
2019-04-20T14:40:14.576Z,100907.63
2019-04-20T14:45:20.718Z,100910.30
2019-04-20T14:50:26.019Z,100908.89
2019-04-20T14:55:31.351Z,100916.84
2019-04-20T15:00:56.533Z,100902.65
2019-04-20T15:06:03.275Z,100905.20
2019-04-20T15:11:09.122Z,100901.48
2019-04-20T15:16:15.057Z,100899.59
2019-04-20T15:21:25.275Z,100894.09
2019-04-20T15:26:30.730Z,100896.42
2019-04-20T15:31:36.447Z,100885.16
2019-04-20T15:36:42.296Z,100905.34
2019-04-20T15:41:47.344Z,100892.02
2019-04-20T15:46:53.078Z,100884.43
2019-04-20T15:51:57.806Z,100888.13
2019-04-20T15:57:12.386Z,100889.05
2019-04-20T16:02:13.584Z,100879.30
2019-04-20T16:07:19.319Z,100885.46
2019-04-20T16:12:24.918Z,100887.55
2019-04-20T16:17:33.788Z,100881.17
2019-04-20T16:22:36.569Z,100879.06
2019-04-20T16:27:41.610Z,100866.66
2019-04-20T16:32:46.309Z,100867.32
2019-04-20T16:37:50.830Z,100864.09
2019-04-20T16:42:56.383Z,100860.68
2019-04-20T16:48:02.151Z,100870.70
2019-04-20T16:53:08.767Z,100870.89
2019-04-20T16:58:13.605Z,100875.72
2019-04-20T17:03:19.551Z,100871.94
2019-04-20T17:08:24.989Z,100872.02
2019-04-20T17:13:38.003Z,100873.73
2019-04-20T17:18:37.243Z,100879.59
2019-04-20T17:23:43.891Z,100869.77
2019-04-20T17:29:01.965Z,100873.41
2019-04-20T17:34:25.734Z,100876.77
2019-04-20T17:39:19.625Z,100875.52
2019-04-20T17:44:34.512Z,100869.89
2019-04-20T17:49:41.193Z,100873.44
2019-04-20T17:54:39.793Z,100870.70
2019-04-20T17:59:55.910Z,100877.21
2019-04-20T18:05:22.062Z,100876.62
2019-04-20T18:10:22.502Z,100878.17
2019-04-20T18:15:28.056Z,100881.95
2019-04-20T18:20:20.791Z,100881.63
2019-04-20T18:25:53.280Z,100885.78
2019-04-20T18:30:43.632Z,100892.89
2019-04-20T18:35:44.332Z,100896.34
2019-04-20T18:40:55.963Z,100901.54
2019-04-20T18:46:15.090Z,100896.48
2019-04-20T18:50:59.781Z,100891.16
2019-04-20T18:56:06.126Z,100889.03
2019-04-20T19:01:10.897Z,100895.31
2019-04-20T19:06:16.077Z,100896.23
2019-04-20T19:11:23.486Z,100902.19
2019-04-20T19:16:46.660Z,100904.52
2019-04-20T19:21:38.318Z,100902.32
2019-04-20T19:26:44.981Z,100901.77
2019-04-20T19:32:07.387Z,100897.22
2019-04-20T19:37:09.301Z,100898.77
2019-04-20T19:42:16.107Z,100889.81
2019-04-20T19:47:28.432Z,100887.56
2019-04-20T19:53:02.159Z,100878.09
2019-04-20T19:57:37.357Z,100878.53
2019-04-20T20:02:27.868Z,100873.86
2019-04-20T20:07:40.189Z,100881.25
2019-04-20T20:12:47.059Z,100885.23
2019-04-20T20:18:04.753Z,100890.52
2019-04-20T20:22:56.793Z,100886.95
2019-04-20T20:28:14.538Z,100898.75
2019-04-20T20:33:22.154Z,100893.45
2019-04-20T20:38:22.419Z,100888.98
2019-04-20T20:43:34.298Z,100887.53
2019-04-20T20:48:38.784Z,100887.53
2019-04-20T20:53:47.071Z,100890.81
2019-04-20T20:58:48.565Z,100890.13
2019-04-20T21:03:49.112Z,100893.94
2019-04-20T21:08:56.075Z,100890.09
2019-04-20T21:13:59.295Z,100882.58
2019-04-20T21:19:21.475Z,100886.41
2019-04-20T21:24:19.224Z,100880.20
2019-04-20T21:29:31.499Z,100882.25
2019-04-20T21:34:31.065Z,100889.53
2019-04-20T21:39:44.107Z,100891.56
2019-04-20T21:44:45.354Z,100889.83
2019-04-20T21:49:57.982Z,100889.08
2019-04-20T21:54:56.214Z,100896.79
2019-04-20T22:00:10.135Z,100899.76
2019-04-20T22:05:09.515Z,100890.67
2019-04-20T22:10:18.980Z,100891.33
2019-04-20T22:15:27.118Z,100896.76
2019-04-20T22:20:37.007Z,100887.92
2019-04-20T22:25:54.529Z,100892.14
2019-04-20T22:30:42.091Z,100894.99
2019-04-20T22:35:51.579Z,100898.67
2019-04-20T22:40:56.424Z,100891.97
2019-04-20T22:45:59.215Z,100888.61
2019-04-20T22:51:19.589Z,100894.74
2019-04-20T22:56:24.389Z,100893.80
2019-04-20T23:01:27.704Z,100882.08
2019-04-20T23:06:25.866Z,100883.74
2019-04-20T23:11:31.860Z,100882.59
2019-04-20T23:16:43.279Z,100881.11
2019-04-20T23:21:48.608Z,100871.63
2019-04-20T23:26:49.381Z,100873.78
2019-04-20T23:31:59.351Z,100872.61
2019-04-20T23:37:00.984Z,100869.58
2019-04-20T23:42:09.562Z,100861.26
2019-04-20T23:47:25.499Z,100860.28
2019-04-20T23:52:48.805Z,100854.73
2019-04-20T23:57:37.749Z,100866.38
